createdAt,value
2022-12-18T00:00:55.071Z,9.50
2022-12-18T00:03:56.511Z,9.32
2022-12-18T00:06:57.886Z,9.15
2022-12-18T00:09:59.222Z,9.18
2022-12-18T00:13:03.813Z,9.70
2022-12-18T00:16:08.102Z,8.95
2022-12-18T00:19:09.397Z,9.18
2022-12-18T00:22:10.688Z,9.18
2022-12-18T00:25:11.970Z,9.18
2022-12-18T00:28:13.264Z,9.70
2022-12-18T00:31:14.641Z,8.15
2022-12-18T00:34:15.997Z,8.70
2022-12-18T00:37:20.291Z,8.45
2022-12-18T00:40:21.832Z,8.90
2022-12-18T00:43:23.138Z,9.27
2022-12-18T00:46:24.863Z,9.27
2022-12-18T00:49:26.157Z,8.75
2022-12-18T00:52:27.479Z,9.32
2022-12-18T00:55:28.756Z,9.25
2022-12-18T00:58:30.055Z,8.60
2022-12-18T01:01:31.469Z,9.23
2022-12-18T01:04:32.841Z,8.38
2022-12-18T01:07:34.126Z,8.52
2022-12-18T01:10:35.425Z,8.25
2022-12-18T01:13:37.076Z,8.27
2022-12-18T01:16:38.676Z,8.90
2022-12-18T01:19:40.022Z,9.02
2022-12-18T01:22:41.301Z,7.63
2022-12-18T01:25:42.593Z,8.23
2022-12-18T01:28:43.887Z,7.80
2022-12-18T01:31:45.254Z,7.75
2022-12-18T01:34:46.558Z,7.35
2022-12-18T01:37:47.852Z,7.57
2022-12-18T01:40:49.135Z,8.07
2022-12-18T01:43:50.452Z,7.20
2022-12-18T01:46:51.736Z,7.65
2022-12-18T01:49:52.994Z,7.05
2022-12-18T01:52:54.299Z,7.53
2022-12-18T01:55:55.571Z,7.63
2022-12-18T01:58:56.860Z,6.73
2022-12-18T02:01:58.301Z,6.28
2022-12-18T02:04:59.762Z,7.10
2022-12-18T02:08:01.051Z,7.05
2022-12-18T02:11:02.335Z,6.55
2022-12-18T02:14:03.618Z,7.40
2022-12-18T02:17:04.969Z,7.32
2022-12-18T02:20:06.302Z,6.22
2022-12-18T02:23:07.658Z,6.93
2022-12-18T02:26:08.928Z,7.40
2022-12-18T02:29:10.231Z,7.20
2022-12-18T02:32:11.521Z,7.00
2022-12-18T02:35:12.807Z,6.80
2022-12-18T02:38:14.106Z,6.65
2022-12-18T02:41:15.403Z,6.80
2022-12-18T02:44:16.673Z,6.20
2022-12-18T02:47:17.962Z,6.05
2022-12-18T02:50:19.268Z,6.32
2022-12-18T02:53:20.548Z,7.00
2022-12-18T02:56:21.826Z,6.75
2022-12-18T02:59:23.112Z,6.33
2022-12-18T03:02:24.545Z,6.68
2022-12-18T03:05:26.023Z,6.15
2022-12-18T03:08:27.313Z,6.15
2022-12-18T03:11:28.578Z,6.00
2022-12-18T03:14:29.875Z,6.73
2022-12-18T03:17:31.158Z,6.03
2022-12-18T03:20:32.447Z,5.88
2022-12-18T03:23:33.732Z,6.15
2022-12-18T03:26:35.023Z,6.20
2022-12-18T03:29:36.317Z,6.03
2022-12-18T03:32:37.581Z,6.28
2022-12-18T03:35:38.888Z,6.20
2022-12-18T03:38:40.182Z,6.05
2022-12-18T03:41:41.488Z,5.78
2022-12-18T03:44:42.764Z,6.63
2022-12-18T03:47:44.053Z,6.18
2022-12-18T03:50:45.327Z,5.78
2022-12-18T03:53:46.641Z,6.25
2022-12-18T03:56:47.934Z,5.80
2022-12-18T03:59:49.235Z,5.67
2022-12-18T04:02:50.555Z,5.63
2022-12-18T04:05:51.841Z,5.28
2022-12-18T04:08:53.135Z,5.30
2022-12-18T04:11:54.420Z,6.15
2022-12-18T04:14:55.715Z,6.10
2022-12-18T04:17:57.005Z,6.38
2022-12-18T04:20:58.294Z,5.78
2022-12-18T04:23:59.579Z,6.25
2022-12-18T04:27:00.874Z,6.03
2022-12-18T04:30:02.180Z,5.43
2022-12-18T04:33:03.486Z,5.40
2022-12-18T04:36:04.780Z,6.38
2022-12-18T04:39:06.087Z,6.28
2022-12-18T04:42:07.364Z,5.80
2022-12-18T04:45:08.660Z,6.07
2022-12-18T04:48:09.956Z,5.90
2022-12-18T04:51:11.739Z,5.00
2022-12-18T04:54:13.018Z,5.63
2022-12-18T04:57:14.288Z,5.63
2022-12-18T05:00:15.588Z,5.50
2022-12-18T05:03:16.925Z,5.80
2022-12-18T05:06:18.259Z,6.07
2022-12-18T05:09:19.569Z,5.53
2022-12-18T05:12:20.867Z,5.50
2022-12-18T05:15:22.150Z,5.50
2022-12-18T05:18:23.436Z,5.43
2022-12-18T05:21:24.738Z,6.00
2022-12-18T05:24:26.030Z,6.07
2022-12-18T05:27:27.327Z,5.05
2022-12-18T05:30:28.639Z,5.37
2022-12-18T05:33:29.926Z,5.75
2022-12-18T05:36:31.214Z,5.50
2022-12-18T05:39:32.488Z,6.30
2022-12-18T05:42:33.797Z,5.47
2022-12-18T05:45:35.103Z,6.00
2022-12-18T05:48:36.431Z,5.82
2022-12-18T05:51:37.729Z,6.03
2022-12-18T05:54:39.020Z,5.45
2022-12-18T05:57:40.343Z,5.85
2022-12-18T06:00:41.649Z,5.53
2022-12-18T06:03:43.326Z,5.78
2022-12-18T06:06:44.883Z,6.55
2022-12-18T06:09:46.171Z,5.32
2022-12-18T06:12:47.491Z,6.13
2022-12-18T06:15:48.928Z,5.60
2022-12-18T06:18:50.236Z,5.70
2022-12-18T06:21:51.664Z,5.95
2022-12-18T06:24:52.953Z,5.95
2022-12-18T06:27:54.278Z,6.32
2022-12-18T06:30:55.573Z,5.97
2022-12-18T06:33:56.878Z,5.43
2022-12-18T06:36:58.164Z,6.50
2022-12-18T06:39:59.436Z,6.00
2022-12-18T06:43:00.749Z,6.20
2022-12-18T06:46:02.089Z,7.27
2022-12-18T06:49:03.415Z,6.63
2022-12-18T06:52:04.705Z,6.03
2022-12-18T06:55:06.006Z,6.78
2022-12-18T06:58:07.319Z,6.43
2022-12-18T07:01:09.501Z,6.40
2022-12-18T07:04:10.856Z,7.13
2022-12-18T07:07:12.131Z,6.60
2022-12-18T07:10:13.436Z,6.28
2022-12-18T07:13:14.732Z,6.65
2022-12-18T07:16:23.908Z,6.40
2022-12-18T07:19:26.354Z,7.38
2022-12-18T07:22:27.644Z,7.28
2022-12-18T07:25:28.948Z,6.97
2022-12-18T07:28:30.258Z,7.35
2022-12-18T07:31:31.600Z,6.77
2022-12-18T07:34:32.973Z,6.05
2022-12-18T07:37:34.274Z,6.88
2022-12-18T07:40:35.558Z,7.30
2022-12-18T07:43:37.009Z,7.32
2022-12-18T07:46:38.526Z,7.43
2022-12-18T07:49:39.824Z,7.07
2022-12-18T07:52:41.112Z,7.53
2022-12-18T07:56:17.868Z,6.65
2022-12-18T07:59:03.669Z,6.80
2022-12-18T08:02:05.152Z,7.10
2022-12-18T08:05:08.232Z,7.00
2022-12-18T08:08:09.504Z,5.82
2022-12-18T08:11:10.804Z,6.72
2022-12-18T08:14:12.089Z,6.60
2022-12-18T08:17:13.472Z,6.83
2022-12-18T08:20:14.744Z,6.38
2022-12-18T08:23:16.083Z,6.22
2022-12-18T08:26:17.396Z,6.15
2022-12-18T08:29:21.682Z,6.45
2022-12-18T08:32:23.168Z,5.93
2022-12-18T08:35:24.472Z,6.43
2022-12-18T08:38:25.791Z,6.53
2022-12-18T08:41:27.119Z,6.65
2022-12-18T08:44:28.399Z,6.75
2022-12-18T08:47:29.702Z,6.27
2022-12-18T08:50:30.970Z,5.85
2022-12-18T08:53:35.620Z,6.38
2022-12-18T08:56:37.251Z,6.15
2022-12-18T08:59:38.545Z,5.70
2022-12-18T09:02:39.972Z,6.13
2022-12-18T09:05:41.363Z,6.93
2022-12-18T09:08:42.922Z,6.30
2022-12-18T09:11:44.501Z,6.30
2022-12-18T09:14:45.788Z,6.45
2022-12-18T09:17:47.091Z,6.20
2022-12-18T09:20:48.885Z,6.55
2022-12-18T09:23:50.211Z,5.90
2022-12-18T09:26:54.813Z,7.10
2022-12-18T09:29:58.846Z,6.25
2022-12-18T09:33:00.152Z,6.80
2022-12-18T09:36:01.616Z,6.15
2022-12-18T09:39:07.841Z,7.03
2022-12-18T09:42:09.716Z,6.15
2022-12-18T09:45:11.033Z,6.60
2022-12-18T09:48:12.323Z,5.50
2022-12-18T09:51:13.617Z,6.30
2022-12-18T09:54:14.928Z,6.55
2022-12-18T09:57:16.236Z,6.53
2022-12-18T10:00:17.531Z,6.50
2022-12-18T10:03:18.845Z,7.00
2022-12-18T10:06:20.134Z,6.07
2022-12-18T10:09:21.423Z,6.00
2022-12-18T10:12:22.735Z,6.03
2022-12-18T10:15:24.036Z,6.43
2022-12-18T10:18:25.345Z,6.47
2022-12-18T10:21:26.631Z,6.45
2022-12-18T10:24:27.937Z,5.78
2022-12-18T10:27:29.226Z,6.40
2022-12-18T10:30:30.544Z,6.63
2022-12-18T10:33:31.842Z,6.17
2022-12-18T10:36:33.148Z,5.90
2022-12-18T10:39:34.410Z,6.20
2022-12-18T10:42:37.000Z,5.97
2022-12-18T10:45:38.315Z,5.82
2022-12-18T10:48:39.946Z,5.83
2022-12-18T10:51:41.604Z,4.93
2022-12-18T10:54:42.900Z,6.25
2022-12-18T10:57:44.201Z,5.72
2022-12-18T11:00:45.490Z,5.90
2022-12-18T11:03:46.860Z,5.13
2022-12-18T11:06:48.156Z,5.32
2022-12-18T11:09:49.464Z,5.47
2022-12-18T11:12:50.746Z,5.63
2022-12-18T11:15:52.078Z,6.15
2022-12-18T11:18:53.412Z,4.80
2022-12-18T11:21:54.701Z,5.80
2022-12-18T11:25:29.630Z,4.72
2022-12-18T11:28:17.324Z,6.40
2022-12-18T11:31:18.707Z,5.63
2022-12-18T11:34:29.156Z,5.57
2022-12-18T11:37:30.972Z,5.47
2022-12-18T11:40:36.541Z,5.47
2022-12-18T11:43:42.117Z,5.32
2022-12-18T11:46:43.524Z,5.18
2022-12-18T11:49:44.872Z,5.33
2022-12-18T11:52:46.149Z,5.43
2022-12-18T11:55:47.445Z,5.47
2022-12-18T11:58:48.738Z,5.03
2022-12-18T12:01:50.127Z,5.45
2022-12-18T12:04:51.496Z,5.40
2022-12-18T12:07:52.778Z,5.45
2022-12-18T12:10:54.089Z,5.47
2022-12-18T12:13:55.383Z,5.65
2022-12-18T12:16:56.672Z,4.80
2022-12-18T12:19:57.984Z,5.30
2022-12-18T12:22:59.283Z,5.15
2022-12-18T12:26:00.595Z,5.13
2022-12-18T12:29:01.887Z,4.72
2022-12-18T12:32:03.683Z,4.72
2022-12-18T12:35:09.603Z,4.80
2022-12-18T12:38:11.353Z,4.88
2022-12-18T12:41:12.676Z,5.25
2022-12-18T12:44:13.982Z,5.78
2022-12-18T12:47:15.266Z,4.88
2022-12-18T12:50:18.228Z,5.40
2022-12-18T12:53:19.531Z,5.80
2022-12-18T12:56:20.883Z,4.90
2022-12-18T12:59:22.200Z,5.28
2022-12-18T13:02:23.573Z,5.47
2022-12-18T13:05:25.550Z,4.77
2022-12-18T13:08:28.052Z,4.85
2022-12-18T13:11:32.467Z,4.95
2022-12-18T13:14:33.876Z,4.55
2022-12-18T13:17:35.191Z,4.90
2022-12-18T13:20:36.504Z,5.20
2022-12-18T13:23:37.875Z,5.35
2022-12-18T13:26:39.214Z,4.75
2022-12-18T13:29:40.714Z,5.50
2022-12-18T13:32:42.023Z,4.53
2022-12-18T13:35:43.336Z,5.77
2022-12-18T13:38:44.771Z,4.40
2022-12-18T13:41:46.626Z,5.60
2022-12-18T13:44:47.916Z,4.82
2022-12-18T13:47:49.460Z,4.28
2022-12-18T13:50:50.782Z,5.20
2022-12-18T13:53:52.310Z,4.95
2022-12-18T13:56:53.635Z,4.20
2022-12-18T13:59:54.942Z,4.85
2022-12-18T14:02:56.323Z,5.03
2022-12-18T14:05:57.974Z,5.30
2022-12-18T14:09:00.690Z,4.78
2022-12-18T14:12:02.237Z,4.65
2022-12-18T14:15:03.541Z,4.22
2022-12-18T14:18:04.830Z,5.25
2022-12-18T14:21:06.129Z,4.60
2022-12-18T14:24:07.780Z,4.63
2022-12-18T14:27:09.062Z,4.97
2022-12-18T14:30:10.372Z,4.88
2022-12-18T14:33:11.712Z,4.85
2022-12-18T14:36:13.064Z,5.00
2022-12-18T14:39:14.377Z,4.80
2022-12-18T14:42:15.842Z,4.55
2022-12-18T14:45:17.180Z,5.10
2022-12-18T14:48:23.034Z,4.82
2022-12-18T14:51:25.233Z,4.40
2022-12-18T14:54:26.533Z,4.93
2022-12-18T14:57:28.189Z,4.97
2022-12-18T15:00:29.543Z,5.03
2022-12-18T15:03:30.941Z,4.47
2022-12-18T15:06:32.767Z,4.70
2022-12-18T15:09:34.490Z,4.95
2022-12-18T15:12:36.032Z,4.95
2022-12-18T15:15:37.725Z,4.30
2022-12-18T15:18:39.616Z,4.75
2022-12-18T15:21:41.833Z,4.93
2022-12-18T15:24:43.186Z,5.45
2022-12-18T15:27:45.008Z,5.15
2022-12-18T15:30:46.762Z,4.78
2022-12-18T15:33:48.151Z,4.80
2022-12-18T15:36:50.299Z,4.97
2022-12-18T15:39:52.031Z,5.70
2022-12-18T15:42:53.549Z,6.30
2022-12-18T15:45:55.386Z,6.43
2022-12-18T15:49:01.691Z,7.35
2022-12-18T15:52:04.613Z,7.60
2022-12-18T15:55:06.395Z,8.38
2022-12-18T15:58:08.223Z,8.00
2022-12-18T16:01:10.029Z,8.20
2022-12-18T16:04:11.477Z,8.90
2022-12-18T16:07:16.075Z,9.43
2022-12-18T16:10:19.525Z,9.15
2022-12-18T16:13:21.202Z,10.10
2022-12-18T16:16:22.997Z,9.43
2022-12-18T16:19:25.980Z,10.15
2022-12-18T16:22:28.194Z,10.20
2022-12-18T16:25:30.034Z,11.18
2022-12-18T16:28:31.914Z,11.38
2022-12-18T16:31:33.689Z,12.57
2022-12-18T16:34:36.173Z,11.95
2022-12-18T16:37:38.168Z,13.03
2022-12-18T16:40:39.585Z,13.15
2022-12-18T16:43:42.573Z,14.68
2022-12-18T16:46:44.265Z,15.15
2022-12-18T16:49:46.148Z,17.63
2022-12-18T16:52:48.021Z,16.70
2022-12-18T16:55:49.729Z,18.27
2022-12-18T16:58:51.686Z,20.45
2022-12-18T17:01:53.963Z,19.38
2022-12-18T17:04:55.807Z,21.08
2022-12-18T17:07:57.640Z,21.23
2022-12-18T17:10:59.430Z,20.52
2022-12-18T17:14:01.276Z,19.77
2022-12-18T17:17:21.745Z,20.48
2022-12-18T17:20:25.323Z,20.65
2022-12-18T17:23:27.266Z,19.90
2022-12-18T17:26:29.139Z,21.55
2022-12-18T17:29:30.985Z,21.40
2022-12-18T17:32:32.575Z,20.02
2022-12-18T17:35:34.260Z,21.08
2022-12-18T17:38:36.135Z,20.60
2022-12-18T17:41:37.950Z,22.23
2022-12-18T17:44:39.791Z,22.08
2022-12-18T17:47:41.516Z,22.40
2022-12-18T17:50:42.832Z,23.00
2022-12-18T17:53:44.890Z,23.27
2022-12-18T17:56:46.890Z,23.05
2022-12-18T17:59:48.697Z,24.85
2022-12-18T18:02:50.714Z,24.80
2022-12-18T18:05:52.730Z,25.77
2022-12-18T18:08:54.341Z,26.30
2022-12-18T18:11:56.387Z,26.40
2022-12-18T18:14:58.242Z,26.50
2022-12-18T18:18:00.261Z,26.73
2022-12-18T18:21:02.148Z,26.75
2022-12-18T18:24:04.243Z,28.07
2022-12-18T18:27:06.081Z,27.95
2022-12-18T18:30:07.588Z,27.67
2022-12-18T18:33:12.062Z,28.13
2022-12-18T18:36:13.652Z,27.33
2022-12-18T18:39:15.679Z,28.93
2022-12-18T18:42:17.402Z,28.65
2022-12-18T18:45:19.221Z,28.40
2022-12-18T18:48:20.621Z,29.48
2022-12-18T18:51:21.991Z,29.15
2022-12-18T18:54:23.550Z,27.97
2022-12-18T18:57:29.966Z,27.85
2022-12-18T19:00:32.247Z,28.95
2022-12-18T19:03:34.282Z,28.77
2022-12-18T19:06:36.075Z,28.80
2022-12-18T19:09:37.922Z,28.77
2022-12-18T19:12:39.618Z,29.50
2022-12-18T19:15:42.209Z,28.40
2022-12-18T19:18:44.515Z,28.48
2022-12-18T19:21:47.464Z,29.98
2022-12-18T19:24:49.205Z,30.87
2022-12-18T19:27:50.595Z,30.77
2022-12-18T19:30:53.589Z,31.17
2022-12-18T19:34:02.788Z,31.20
2022-12-18T19:37:04.388Z,30.42
2022-12-18T19:40:12.595Z,29.80
2022-12-18T19:43:15.179Z,31.50
2022-12-18T19:46:17.933Z,30.17
2022-12-18T19:49:19.935Z,30.67
2022-12-18T19:52:21.697Z,31.05
2022-12-18T19:55:23.402Z,31.87
2022-12-18T19:58:25.043Z,30.73
2022-12-18T20:01:26.809Z,30.58
2022-12-18T20:04:28.407Z,31.75
2022-12-18T20:07:30.341Z,29.55
2022-12-18T20:10:32.046Z,31.03
2022-12-18T20:13:33.560Z,31.15
2022-12-18T20:16:35.385Z,30.92
2022-12-18T20:19:37.554Z,30.85
2022-12-18T20:22:39.745Z,31.08
2022-12-18T20:25:41.468Z,30.40
2022-12-18T20:28:43.016Z,31.27
2022-12-18T20:31:44.670Z,32.10
2022-12-18T20:34:46.202Z,32.20
2022-12-18T20:37:49.846Z,32.85
2022-12-18T20:40:52.360Z,32.87
2022-12-18T20:43:54.142Z,33.00
2022-12-18T20:46:55.923Z,32.22
2022-12-18T20:49:57.709Z,32.58
2022-12-18T20:52:59.091Z,31.50
2022-12-18T20:56:00.435Z,33.57
2022-12-18T20:59:02.112Z,31.70
2022-12-18T21:02:03.688Z,33.13
2022-12-18T21:05:05.140Z,32.80
2022-12-18T21:08:06.757Z,32.50
2022-12-18T21:11:08.509Z,32.13
2022-12-18T21:14:09.992Z,35.15
2022-12-18T21:17:11.397Z,32.00
2022-12-18T21:20:17.452Z,33.42
2022-12-18T21:23:19.551Z,32.55
2022-12-18T21:26:20.958Z,32.30
2022-12-18T21:29:22.465Z,32.78
2022-12-18T21:32:24.722Z,33.03
2022-12-18T21:35:32.140Z,32.25
2022-12-18T21:38:33.557Z,30.90
2022-12-18T21:41:41.703Z,34.07
2022-12-18T21:44:43.518Z,32.17
2022-12-18T21:47:44.825Z,33.13
2022-12-18T21:50:46.117Z,32.17
2022-12-18T21:53:47.427Z,32.45
2022-12-18T21:56:50.478Z,31.00
2022-12-18T21:59:51.768Z,32.45
2022-12-18T22:03:17.723Z,32.50
2022-12-18T22:06:14.342Z,30.95
2022-12-18T22:09:15.686Z,29.75
2022-12-18T22:12:16.978Z,30.23
2022-12-18T22:15:21.775Z,30.52
2022-12-18T22:18:23.415Z,30.98
2022-12-18T22:21:29.097Z,31.45
2022-12-18T22:24:30.979Z,29.73
2022-12-18T22:27:32.286Z,30.30
2022-12-18T22:30:33.584Z,28.70
2022-12-18T22:33:35.030Z,28.55
2022-12-18T22:36:36.332Z,28.67
2022-12-18T22:39:37.638Z,28.00
2022-12-18T22:42:39.236Z,28.60
2022-12-18T22:45:40.516Z,28.23
2022-12-18T22:48:42.048Z,28.30
2022-12-18T22:51:43.352Z,26.83
2022-12-18T22:54:44.641Z,26.98
2022-12-18T22:57:49.174Z,27.47
2022-12-18T23:00:50.618Z,27.23
2022-12-18T23:03:51.945Z,26.73
2022-12-18T23:06:53.257Z,27.92
2022-12-18T23:10:00.807Z,26.45
2022-12-18T23:13:02.562Z,25.73
2022-12-18T23:16:03.934Z,27.30
2022-12-18T23:19:05.341Z,26.27
2022-12-18T23:22:11.519Z,25.35
2022-12-18T23:25:13.133Z,27.10
2022-12-18T23:28:14.428Z,24.53
2022-12-18T23:31:15.789Z,25.05
2022-12-18T23:34:18.298Z,25.60
2022-12-18T23:37:49.867Z,24.45
2022-12-18T23:40:40.894Z,22.88
2022-12-18T23:43:42.176Z,21.87
2022-12-18T23:46:45.501Z,23.50
2022-12-18T23:49:46.879Z,22.73
2022-12-18T23:52:48.431Z,22.50
2022-12-18T23:55:49.722Z,22.42
2022-12-18T23:58:52.944Z,21.53
